sensor_id;sensor_type;location;lat;lon;timestamp;pressure;altitude;pressure_sealevel;temperature
47484;BMP280;54076;50.322;18.650;2022-08-19T00:01:40;98523.11;;;25.27
47484;BMP280;54076;50.322;18.650;2022-08-19T00:06:44;98526.40;;;25.10
47484;BMP280;54076;50.322;18.650;2022-08-19T00:11:45;98526.63;;;25.10
47484;BMP280;54076;50.322;18.650;2022-08-19T00:16:47;98519.10;;;25.01
47484;BMP280;54076;50.322;18.650;2022-08-19T00:21:50;98517.02;;;24.96
47484;BMP280;54076;50.322;18.650;2022-08-19T00:26:52;98506.70;;;24.92
47484;BMP280;54076;50.322;18.650;2022-08-19T00:31:53;98496.79;;;24.91
47484;BMP280;54076;50.322;18.650;2022-08-19T00:36:57;98496.75;;;24.94
47484;BMP280;54076;50.322;18.650;2022-08-19T00:41:58;98496.48;;;24.97
47484;BMP280;54076;50.322;18.650;2022-08-19T00:46:59;98492.73;;;24.78
47484;BMP280;54076;50.322;18.650;2022-08-19T00:52:09;98488.63;;;24.68
47484;BMP280;54076;50.322;18.650;2022-08-19T00:57:17;98488.94;;;24.62
47484;BMP280;54076;50.322;18.650;2022-08-19T01:02:19;98489.56;;;24.61
47484;BMP280;54076;50.322;18.650;2022-08-19T01:07:21;98483.38;;;24.56
47484;BMP280;54076;50.322;18.650;2022-08-19T01:12:22;98483.27;;;24.55
47484;BMP280;54076;50.322;18.650;2022-08-19T01:17:23;98476.73;;;24.54
47484;BMP280;54076;50.322;18.650;2022-08-19T01:22:31;98475.36;;;24.47
47484;BMP280;54076;50.322;18.650;2022-08-19T01:27:40;98470.92;;;24.36
47484;BMP280;54076;50.322;18.650;2022-08-19T01:32:42;98467.66;;;24.33
47484;BMP280;54076;50.322;18.650;2022-08-19T01:38:08;98468.20;;;24.29
47484;BMP280;54076;50.322;18.650;2022-08-19T01:43:08;98463.67;;;24.20
47484;BMP280;54076;50.322;18.650;2022-08-19T01:48:09;98468.50;;;24.22
47484;BMP280;54076;50.322;18.650;2022-08-19T01:53:11;98462.46;;;24.09
47484;BMP280;54076;50.322;18.650;2022-08-19T01:58:24;98457.59;;;24.19
47484;BMP280;54076;50.322;18.650;2022-08-19T02:03:27;98459.06;;;24.05
47484;BMP280;54076;50.322;18.650;2022-08-19T02:08:30;98456.68;;;24.10
47484;BMP280;54076;50.322;18.650;2022-08-19T02:13:31;98457.65;;;24.12
47484;BMP280;54076;50.322;18.650;2022-08-19T02:18:32;98463.95;;;24.09
47484;BMP280;54076;50.322;18.650;2022-08-19T02:23:34;98456.05;;;23.93
47484;BMP280;54076;50.322;18.650;2022-08-19T02:28:35;98448.26;;;24.02
47484;BMP280;54076;50.322;18.650;2022-08-19T02:33:37;98442.98;;;24.08
47484;BMP280;54076;50.322;18.650;2022-08-19T02:38:39;98445.01;;;23.85
47484;BMP280;54076;50.322;18.650;2022-08-19T02:43:41;98451.83;;;23.96
47484;BMP280;54076;50.322;18.650;2022-08-19T02:48:42;98453.85;;;23.84
47484;BMP280;54076;50.322;18.650;2022-08-19T02:53:44;98453.76;;;23.83
47484;BMP280;54076;50.322;18.650;2022-08-19T02:58:46;98445.86;;;23.77
47484;BMP280;54076;50.322;18.650;2022-08-19T03:03:47;98442.82;;;23.78
47484;BMP280;54076;50.322;18.650;2022-08-19T03:08:49;98434.06;;;23.81
47484;BMP280;54076;50.322;18.650;2022-08-19T03:13:50;98435.67;;;23.75
47484;BMP280;54076;50.322;18.650;2022-08-19T03:18:53;98436.59;;;23.92
47484;BMP280;54076;50.322;18.650;2022-08-19T03:23:57;98440.95;;;23.69
47484;BMP280;54076;50.322;18.650;2022-08-19T03:29:03;98453.36;;;23.85
47484;BMP280;54076;50.322;18.650;2022-08-19T03:34:04;98461.68;;;23.74
47484;BMP280;54076;50.322;18.650;2022-08-19T03:39:05;98464.39;;;23.67
47484;BMP280;54076;50.322;18.650;2022-08-19T03:44:06;98462.52;;;23.59
47484;BMP280;54076;50.322;18.650;2022-08-19T03:49:09;98469.30;;;23.73
47484;BMP280;54076;50.322;18.650;2022-08-19T03:54:14;98470.06;;;23.73
47484;BMP280;54076;50.322;18.650;2022-08-19T03:59:24;98471.91;;;23.68
47484;BMP280;54076;50.322;18.650;2022-08-19T04:04:27;98486.61;;;23.70
47484;BMP280;54076;50.322;18.650;2022-08-19T04:09:29;98485.20;;;23.54
47484;BMP280;54076;50.322;18.650;2022-08-19T04:14:30;98495.08;;;23.80
47484;BMP280;54076;50.322;18.650;2022-08-19T04:19:35;98501.62;;;23.84
47484;BMP280;54076;50.322;18.650;2022-08-19T04:24:37;98517.82;;;23.84
47484;BMP280;54076;50.322;18.650;2022-08-19T04:29:38;98514.88;;;23.85
47484;BMP280;54076;50.322;18.650;2022-08-19T04:34:41;98516.08;;;23.95
47484;BMP280;54076;50.322;18.650;2022-08-19T04:39:43;98527.16;;;23.95
47484;BMP280;54076;50.322;18.650;2022-08-19T04:45:10;98524.39;;;24.05
47484;BMP280;54076;50.322;18.650;2022-08-19T04:50:12;98521.29;;;24.08
47484;BMP280;54076;50.322;18.650;2022-08-19T04:55:13;98522.05;;;24.26
47484;BMP280;54076;50.322;18.650;2022-08-19T05:00:14;98525.00;;;24.27
47484;BMP280;54076;50.322;18.650;2022-08-19T05:05:15;98512.65;;;24.48
47484;BMP280;54076;50.322;18.650;2022-08-19T05:10:16;98518.15;;;24.65
47484;BMP280;54076;50.322;18.650;2022-08-19T05:15:17;98513.54;;;24.70
47484;BMP280;54076;50.322;18.650;2022-08-19T05:20:20;98515.42;;;24.75
47484;BMP280;54076;50.322;18.650;2022-08-19T05:25:40;98517.59;;;24.72
47484;BMP280;54076;50.322;18.650;2022-08-19T05:30:41;98523.25;;;24.69
47484;BMP280;54076;50.322;18.650;2022-08-19T05:35:44;98533.73;;;24.66
47484;BMP280;54076;50.322;18.650;2022-08-19T05:40:45;98529.78;;;24.83
47484;BMP280;54076;50.322;18.650;2022-08-19T05:45:49;98533.71;;;24.92
47484;BMP280;54076;50.322;18.650;2022-08-19T05:50:51;98535.69;;;24.91
47484;BMP280;54076;50.322;18.650;2022-08-19T05:55:52;98534.71;;;24.90
47484;BMP280;54076;50.322;18.650;2022-08-19T06:00:53;98529.61;;;24.92
47484;BMP280;54076;50.322;18.650;2022-08-19T06:05:54;98542.91;;;24.96
47484;BMP280;54076;50.322;18.650;2022-08-19T06:10:56;98537.45;;;25.11
47484;BMP280;54076;50.322;18.650;2022-08-19T06:15:57;98543.52;;;25.22
47484;BMP280;54076;50.322;18.650;2022-08-19T06:20:57;98550.83;;;25.29
47484;BMP280;54076;50.322;18.650;2022-08-19T06:25:58;98558.10;;;25.42
47484;BMP280;54076;50.322;18.650;2022-08-19T06:31:06;98562.67;;;25.68
47484;BMP280;54076;50.322;18.650;2022-08-19T06:36:16;98567.41;;;25.83
47484;BMP280;54076;50.322;18.650;2022-08-19T06:41:17;98566.63;;;25.99
47484;BMP280;54076;50.322;18.650;2022-08-19T06:46:19;98574.83;;;26.03
47484;BMP280;54076;50.322;18.650;2022-08-19T06:51:22;98588.54;;;26.02
47484;BMP280;54076;50.322;18.650;2022-08-19T06:56:28;98600.44;;;26.18
47484;BMP280;54076;50.322;18.650;2022-08-19T07:01:42;98598.46;;;26.29
47484;BMP280;54076;50.322;18.650;2022-08-19T07:06:48;98606.73;;;26.45
47484;BMP280;54076;50.322;18.650;2022-08-19T07:11:52;98609.35;;;26.56
47484;BMP280;54076;50.322;18.650;2022-08-19T07:16:55;98612.88;;;26.62
47484;BMP280;54076;50.322;18.650;2022-08-19T07:21:57;98618.45;;;26.78
47484;BMP280;54076;50.322;18.650;2022-08-19T07:27:03;98625.17;;;27.04
47484;BMP280;54076;50.322;18.650;2022-08-19T07:32:05;98629.16;;;27.25
47484;BMP280;54076;50.322;18.650;2022-08-19T07:37:07;98629.89;;;27.44
47484;BMP280;54076;50.322;18.650;2022-08-19T07:42:11;98634.11;;;27.63
47484;BMP280;54076;50.322;18.650;2022-08-19T07:47:14;98631.36;;;27.83
47484;BMP280;54076;50.322;18.650;2022-08-19T07:52:16;98633.55;;;28.06
47484;BMP280;54076;50.322;18.650;2022-08-19T07:57:17;98635.20;;;28.20
47484;BMP280;54076;50.322;18.650;2022-08-19T08:02:19;98631.97;;;28.35
47484;BMP280;54076;50.322;18.650;2022-08-19T08:07:20;98631.84;;;28.50
47484;BMP280;54076;50.322;18.650;2022-08-19T08:12:40;98635.32;;;28.52
47484;BMP280;54076;50.322;18.650;2022-08-19T08:17:42;98629.98;;;28.69
47484;BMP280;54076;50.322;18.650;2022-08-19T08:22:45;98629.56;;;29.07
47484;BMP280;54076;50.322;18.650;2022-08-19T08:28:06;98627.77;;;29.07
47484;BMP280;54076;50.322;18.650;2022-08-19T08:33:10;98619.42;;;29.64
47484;BMP280;54076;50.322;18.650;2022-08-19T08:38:11;98604.19;;;30.06
47484;BMP280;54076;50.322;18.650;2022-08-19T08:43:39;98606.98;;;29.83
47484;BMP280;54076;50.322;18.650;2022-08-19T08:49:05;98605.77;;;29.83
47484;BMP280;54076;50.322;18.650;2022-08-19T08:54:13;98608.62;;;30.43
47484;BMP280;54076;50.322;18.650;2022-08-19T08:59:31;98603.88;;;30.63
47484;BMP280;54076;50.322;18.650;2022-08-19T09:04:38;98600.60;;;30.64
47484;BMP280;54076;50.322;18.650;2022-08-19T09:09:52;98611.37;;;30.61
47484;BMP280;54076;50.322;18.650;2022-08-19T09:15:02;98613.93;;;30.90
47484;BMP280;54076;50.322;18.650;2022-08-19T09:20:23;98609.42;;;31.11
47484;BMP280;54076;50.322;18.650;2022-08-19T09:25:25;98612.90;;;31.37
47484;BMP280;54076;50.322;18.650;2022-08-19T09:30:29;98614.77;;;31.68
47484;BMP280;54076;50.322;18.650;2022-08-19T09:35:31;98620.75;;;31.61
47484;BMP280;54076;50.322;18.650;2022-08-19T09:40:33;98609.18;;;31.71
47484;BMP280;54076;50.322;18.650;2022-08-19T09:45:34;98609.38;;;31.74
47484;BMP280;54076;50.322;18.650;2022-08-19T09:50:35;98613.80;;;31.98
47484;BMP280;54076;50.322;18.650;2022-08-19T09:55:45;98617.30;;;31.83
47484;BMP280;54076;50.322;18.650;2022-08-19T10:00:46;98611.94;;;32.37
47484;BMP280;54076;50.322;18.650;2022-08-19T10:05:47;98612.10;;;32.20
47484;BMP280;54076;50.322;18.650;2022-08-19T10:10:52;98605.23;;;32.20
47484;BMP280;54076;50.322;18.650;2022-08-19T10:15:55;98611.48;;;32.27
47484;BMP280;54076;50.322;18.650;2022-08-19T10:21:16;98612.52;;;31.92
47484;BMP280;54076;50.322;18.650;2022-08-19T10:26:26;98618.69;;;31.85
47484;BMP280;54076;50.322;18.650;2022-08-19T10:31:32;98605.37;;;32.02
47484;BMP280;54076;50.322;18.650;2022-08-19T10:36:36;98602.52;;;32.41
47484;BMP280;54076;50.322;18.650;2022-08-19T10:41:39;98603.19;;;32.53
47484;BMP280;54076;50.322;18.650;2022-08-19T10:46:43;98603.73;;;33.54
47484;BMP280;54076;50.322;18.650;2022-08-19T10:51:47;98599.47;;;33.46
47484;BMP280;54076;50.322;18.650;2022-08-19T10:57:07;98588.77;;;33.50
47484;BMP280;54076;50.322;18.650;2022-08-19T11:02:11;98564.50;;;33.26
47484;BMP280;54076;50.322;18.650;2022-08-19T11:07:12;98572.14;;;32.88
47484;BMP280;54076;50.322;18.650;2022-08-19T11:12:13;98575.02;;;32.73
47484;BMP280;54076;50.322;18.650;2022-08-19T11:17:16;98573.28;;;32.98
47484;BMP280;54076;50.322;18.650;2022-08-19T11:22:16;98586.55;;;33.55
47484;BMP280;54076;50.322;18.650;2022-08-19T11:27:18;98594.20;;;34.39
47484;BMP280;54076;50.322;18.650;2022-08-19T11:32:19;98580.80;;;35.16
47484;BMP280;54076;50.322;18.650;2022-08-19T11:37:19;98572.23;;;34.73
47484;BMP280;54076;50.322;18.650;2022-08-19T11:42:20;98566.66;;;34.39
47484;BMP280;54076;50.322;18.650;2022-08-19T11:47:48;98561.83;;;33.80
47484;BMP280;54076;50.322;18.650;2022-08-19T11:52:49;98572.50;;;33.46
47484;BMP280;54076;50.322;18.650;2022-08-19T11:57:50;98562.78;;;33.25
47484;BMP280;54076;50.322;18.650;2022-08-19T12:02:51;98554.97;;;33.09
47484;BMP280;54076;50.322;18.650;2022-08-19T12:07:52;98555.08;;;32.83
47484;BMP280;54076;50.322;18.650;2022-08-19T12:12:55;98554.08;;;32.83
47484;BMP280;54076;50.322;18.650;2022-08-19T12:17:57;98555.23;;;33.22
47484;BMP280;54076;50.322;18.650;2022-08-19T12:22:58;98551.72;;;34.37
47484;BMP280;54076;50.322;18.650;2022-08-19T12:27:59;98538.27;;;35.40
47484;BMP280;54076;50.322;18.650;2022-08-19T12:33:00;98535.77;;;35.40
47484;BMP280;54076;50.322;18.650;2022-08-19T12:38:01;98538.84;;;35.60
47484;BMP280;54076;50.322;18.650;2022-08-19T12:43:03;98538.05;;;35.63
47484;BMP280;54076;50.322;18.650;2022-08-19T12:48:04;98537.10;;;35.36
47484;BMP280;54076;50.322;18.650;2022-08-19T12:53:05;98540.67;;;36.31
47484;BMP280;54076;50.322;18.650;2022-08-19T12:58:06;98542.60;;;36.46
47484;BMP280;54076;50.322;18.650;2022-08-19T13:03:07;98537.88;;;36.31
47484;BMP280;54076;50.322;18.650;2022-08-19T13:08:11;98537.04;;;35.95
47484;BMP280;54076;50.322;18.650;2022-08-19T13:13:12;98535.27;;;35.71
47484;BMP280;54076;50.322;18.650;2022-08-19T13:18:14;98533.39;;;35.49
47484;BMP280;54076;50.322;18.650;2022-08-19T13:23:15;98530.33;;;35.22
47484;BMP280;54076;50.322;18.650;2022-08-19T13:28:15;98530.95;;;34.97
47484;BMP280;54076;50.322;18.650;2022-08-19T13:33:17;98529.34;;;34.73
47484;BMP280;54076;50.322;18.650;2022-08-19T13:38:21;98524.34;;;34.68
47484;BMP280;54076;50.322;18.650;2022-08-19T13:43:26;98527.52;;;34.67
47484;BMP280;54076;50.322;18.650;2022-08-19T13:48:27;98524.77;;;35.43
47484;BMP280;54076;50.322;18.650;2022-08-19T13:53:28;98521.69;;;35.53
47484;BMP280;54076;50.322;18.650;2022-08-19T13:58:30;98521.23;;;35.40
47484;BMP280;54076;50.322;18.650;2022-08-19T14:03:33;98514.83;;;35.59
47484;BMP280;54076;50.322;18.650;2022-08-19T14:08:34;98514.25;;;35.25
47484;BMP280;54076;50.322;18.650;2022-08-19T14:13:40;98513.09;;;35.13
47484;BMP280;54076;50.322;18.650;2022-08-19T14:18:42;98513.60;;;35.12
47484;BMP280;54076;50.322;18.650;2022-08-19T14:23:44;98501.93;;;34.74
47484;BMP280;54076;50.322;18.650;2022-08-19T14:28:45;98496.95;;;34.30
47484;BMP280;54076;50.322;18.650;2022-08-19T14:33:47;98493.69;;;34.06
47484;BMP280;54076;50.322;18.650;2022-08-19T14:38:48;98484.30;;;34.26
47484;BMP280;54076;50.322;18.650;2022-08-19T14:43:52;98477.30;;;34.19
47484;BMP280;54076;50.322;18.650;2022-08-19T14:48:55;98462.77;;;34.22
47484;BMP280;54076;50.322;18.650;2022-08-19T14:53:57;98449.95;;;34.58
47484;BMP280;54076;50.322;18.650;2022-08-19T14:58:58;98445.36;;;34.56
47484;BMP280;54076;50.322;18.650;2022-08-19T15:04:02;98447.52;;;33.93
47484;BMP280;54076;50.322;18.650;2022-08-19T15:09:04;98439.86;;;33.46
47484;BMP280;54076;50.322;18.650;2022-08-19T15:14:05;98437.01;;;33.12
47484;BMP280;54076;50.322;18.650;2022-08-19T15:19:07;98437.45;;;32.81
47484;BMP280;54076;50.322;18.650;2022-08-19T15:24:08;98439.20;;;32.62
47484;BMP280;54076;50.322;18.650;2022-08-19T15:29:10;98424.95;;;32.26
47484;BMP280;54076;50.322;18.650;2022-08-19T15:34:13;98409.84;;;31.85
47484;BMP280;54076;50.322;18.650;2022-08-19T15:39:14;98405.13;;;31.54
47484;BMP280;54076;50.322;18.650;2022-08-19T15:44:17;98409.41;;;31.43
47484;BMP280;54076;50.322;18.650;2022-08-19T15:49:19;98428.52;;;31.09
47484;BMP280;54076;50.322;18.650;2022-08-19T15:54:20;98448.10;;;30.89
47484;BMP280;54076;50.322;18.650;2022-08-19T15:59:21;98432.00;;;30.57
47484;BMP280;54076;50.322;18.650;2022-08-19T16:04:41;98416.61;;;30.43
47484;BMP280;54076;50.322;18.650;2022-08-19T16:10:05;98439.17;;;30.57
47484;BMP280;54076;50.322;18.650;2022-08-19T16:15:11;98448.17;;;30.53
47484;BMP280;54076;50.322;18.650;2022-08-19T16:20:14;98544.67;;;29.62
47484;BMP280;54076;50.322;18.650;2022-08-19T16:25:16;98546.23;;;27.45
47484;BMP280;54076;50.322;18.650;2022-08-19T16:30:17;98531.03;;;26.89
47484;BMP280;54076;50.322;18.650;2022-08-19T16:35:18;98532.83;;;26.59
47484;BMP280;54076;50.322;18.650;2022-08-19T16:40:19;98538.45;;;26.46
47484;BMP280;54076;50.322;18.650;2022-08-19T16:45:20;98516.13;;;26.43
47484;BMP280;54076;50.322;18.650;2022-08-19T16:50:21;98519.09;;;26.35
47484;BMP280;54076;50.322;18.650;2022-08-19T16:55:23;98505.56;;;26.20
47484;BMP280;54076;50.322;18.650;2022-08-19T17:00:24;98491.90;;;26.16
47484;BMP280;54076;50.322;18.650;2022-08-19T17:05:24;98514.11;;;26.03
47484;BMP280;54076;50.322;18.650;2022-08-19T17:10:25;98653.42;;;25.48
47484;BMP280;54076;50.322;18.650;2022-08-19T17:15:27;98687.97;;;25.21
47484;BMP280;54076;50.322;18.650;2022-08-19T17:20:32;98657.33;;;24.86
47484;BMP280;54076;50.322;18.650;2022-08-19T17:25:33;98665.83;;;24.87
47484;BMP280;54076;50.322;18.650;2022-08-19T17:30:35;98741.08;;;24.47
47484;BMP280;54076;50.322;18.650;2022-08-19T17:35:37;98760.86;;;24.15
47484;BMP280;54076;50.322;18.650;2022-08-19T17:40:45;98769.73;;;23.16
47484;BMP280;54076;50.322;18.650;2022-08-19T17:45:46;98751.55;;;22.86
47484;BMP280;54076;50.322;18.650;2022-08-19T17:50:47;98740.92;;;22.73
47484;BMP280;54076;50.322;18.650;2022-08-19T17:55:48;98787.05;;;23.78
47484;BMP280;54076;50.322;18.650;2022-08-19T18:00:49;98779.33;;;23.16
47484;BMP280;54076;50.322;18.650;2022-08-19T18:05:51;98785.15;;;23.00
47484;BMP280;54076;50.322;18.650;2022-08-19T18:10:53;98794.77;;;22.64
47484;BMP280;54076;50.322;18.650;2022-08-19T18:15:54;98824.61;;;22.28
47484;BMP280;54076;50.322;18.650;2022-08-19T18:20:57;98801.44;;;22.13
47484;BMP280;54076;50.322;18.650;2022-08-19T18:25:59;98777.53;;;22.39
47484;BMP280;54076;50.322;18.650;2022-08-19T18:31:01;98757.44;;;22.64
47484;BMP280;54076;50.322;18.650;2022-08-19T18:36:04;98738.56;;;22.67
47484;BMP280;54076;50.322;18.650;2022-08-19T18:41:07;98757.48;;;22.52
47484;BMP280;54076;50.322;18.650;2022-08-19T18:46:27;98793.42;;;22.52
47484;BMP280;54076;50.322;18.650;2022-08-19T18:51:46;98844.36;;;22.18
47484;BMP280;54076;50.322;18.650;2022-08-19T18:56:47;98828.60;;;22.39
47484;BMP280;54076;50.322;18.650;2022-08-19T19:01:51;98835.45;;;22.59
47484;BMP280;54076;50.322;18.650;2022-08-19T19:06:54;98881.24;;;22.42
47484;BMP280;54076;50.322;18.650;2022-08-19T19:12:00;98903.52;;;22.38
47484;BMP280;54076;50.322;18.650;2022-08-19T19:17:06;98892.78;;;22.58
47484;BMP280;54076;50.322;18.650;2022-08-19T19:22:10;98913.78;;;22.63
47484;BMP280;54076;50.322;18.650;2022-08-19T19:27:14;98879.92;;;22.52
47484;BMP280;54076;50.322;18.650;2022-08-19T19:32:28;98848.07;;;22.62
47484;BMP280;54076;50.322;18.650;2022-08-19T19:37:33;98856.67;;;22.73
47484;BMP280;54076;50.322;18.650;2022-08-19T19:42:35;98845.21;;;22.86
47484;BMP280;54076;50.322;18.650;2022-08-19T19:47:36;98810.48;;;22.85
47484;BMP280;54076;50.322;18.650;2022-08-19T19:52:39;98806.64;;;22.88
47484;BMP280;54076;50.322;18.650;2022-08-19T19:57:40;98808.20;;;22.80
47484;BMP280;54076;50.322;18.650;2022-08-19T20:02:42;98800.56;;;22.80
47484;BMP280;54076;50.322;18.650;2022-08-19T20:07:45;98804.61;;;22.86
47484;BMP280;54076;50.322;18.650;2022-08-19T20:13:06;98795.05;;;22.65
47484;BMP280;54076;50.322;18.650;2022-08-19T20:18:08;98789.44;;;22.68
47484;BMP280;54076;50.322;18.650;2022-08-19T20:23:10;98772.33;;;22.84
47484;BMP280;54076;50.322;18.650;2022-08-19T20:28:11;98768.95;;;22.80
47484;BMP280;54076;50.322;18.650;2022-08-19T20:33:12;98760.02;;;22.70
47484;BMP280;54076;50.322;18.650;2022-08-19T20:38:14;98750.55;;;22.59
47484;BMP280;54076;50.322;18.650;2022-08-19T20:43:15;98752.48;;;22.72
47484;BMP280;54076;50.322;18.650;2022-08-19T20:48:16;98756.84;;;22.57
47484;BMP280;54076;50.322;18.650;2022-08-19T20:53:19;98756.73;;;22.50
47484;BMP280;54076;50.322;18.650;2022-08-19T20:58:24;98755.97;;;22.55
47484;BMP280;54076;50.322;18.650;2022-08-19T21:03:33;98746.45;;;22.63
47484;BMP280;54076;50.322;18.650;2022-08-19T21:08:36;98736.63;;;22.63
47484;BMP280;54076;50.322;18.650;2022-08-19T21:13:37;98753.95;;;22.66
47484;BMP280;54076;50.322;18.650;2022-08-19T21:18:38;98768.95;;;22.59
47484;BMP280;54076;50.322;18.650;2022-08-19T21:23:39;98782.19;;;22.74
47484;BMP280;54076;50.322;18.650;2022-08-19T21:28:40;98784.81;;;22.79
47484;BMP280;54076;50.322;18.650;2022-08-19T21:33:41;98790.61;;;22.94
47484;BMP280;54076;50.322;18.650;2022-08-19T21:38:42;98812.63;;;22.97
47484;BMP280;54076;50.322;18.650;2022-08-19T21:43:43;98819.26;;;22.94
47484;BMP280;54076;50.322;18.650;2022-08-19T21:48:44;98812.00;;;22.84
47484;BMP280;54076;50.322;18.650;2022-08-19T21:53:45;98807.72;;;22.89
47484;BMP280;54076;50.322;18.650;2022-08-19T21:58:46;98799.69;;;22.86
47484;BMP280;54076;50.322;18.650;2022-08-19T22:03:47;98811.81;;;22.81
47484;BMP280;54076;50.322;18.650;2022-08-19T22:08:48;98806.56;;;22.56
47484;BMP280;54076;50.322;18.650;2022-08-19T22:13:50;98769.23;;;22.49
47484;BMP280;54076;50.322;18.650;2022-08-19T22:18:53;98763.33;;;22.51
47484;BMP280;54076;50.322;18.650;2022-08-19T22:23:54;98746.11;;;22.45
47484;BMP280;54076;50.322;18.650;2022-08-19T22:28:55;98735.73;;;22.48
47484;BMP280;54076;50.322;18.650;2022-08-19T22:33:56;98722.51;;;22.42
47484;BMP280;54076;50.322;18.650;2022-08-19T22:38:58;98723.81;;;22.46
47484;BMP280;54076;50.322;18.650;2022-08-19T22:44:00;98720.20;;;22.34
47484;BMP280;54076;50.322;18.650;2022-08-19T22:49:01;98717.08;;;22.40
47484;BMP280;54076;50.322;18.650;2022-08-19T22:54:03;98694.92;;;22.36
47484;BMP280;54076;50.322;18.650;2022-08-19T22:59:04;98712.73;;;22.40
47484;BMP280;54076;50.322;18.650;2022-08-19T23:04:05;98700.13;;;22.32
47484;BMP280;54076;50.322;18.650;2022-08-19T23:09:07;98690.11;;;22.30
47484;BMP280;54076;50.322;18.650;2022-08-19T23:14:10;98690.14;;;22.30
47484;BMP280;54076;50.322;18.650;2022-08-19T23:19:12;98686.08;;;22.35
47484;BMP280;54076;50.322;18.650;2022-08-19T23:24:13;98716.88;;;22.46
47484;BMP280;54076;50.322;18.650;2022-08-19T23:29:14;98744.23;;;22.48
47484;BMP280;54076;50.322;18.650;2022-08-19T23:34:33;98750.23;;;22.52
47484;BMP280;54076;50.322;18.650;2022-08-19T23:39:34;98749.33;;;22.63
47484;BMP280;54076;50.322;18.650;2022-08-19T23:44:37;98749.71;;;22.57
47484;BMP280;54076;50.322;18.650;2022-08-19T23:49:38;98740.96;;;22.58
47484;BMP280;54076;50.322;18.650;2022-08-19T23:54:39;98746.73;;;22.54
47484;BMP280;54076;50.322;18.650;2022-08-19T23:59:41;98746.42;;;22.47
